Time;durP1;ratioP1;P1;durP2;ratioP2;P2;SDS_P1;SDS_P2;PMS_P1;PMS_P2;Temp;Humidity;BMP_temperature;BMP_pressure;BME280_temperature;BME280_humidity;BME280_pressure;Samples;Min_cycle;Max_cycle;Signal;HPM_P1;HPM_P2
2023/09/11 00:02:10;;;;;;;6.60;6.00;;;25.50;59.60;;;;;;229600;1252;23304;-60
2023/09/11 00:07:14;;;;;;;7.90;7.10;;;25.50;59.50;;;;;;229554;1251;22318;-59
2023/09/11 00:12:18;;;;;;;6.40;5.90;;;25.50;59.50;;;;;;229367;1252;225655;-59
2023/09/11 00:17:21;;;;;;;7.10;6.40;;;25.60;59.60;;;;;;229491;1254;22306;-59
2023/09/11 00:22:24;;;;;;;6.50;6.00;;;25.50;59.50;;;;;;229527;1250;22251;-59
2023/09/11 00:27:26;;;;;;;7.20;6.00;;;25.50;59.60;;;;;;229470;1250;22374;-60
2023/09/11 00:32:29;;;;;;;7.50;6.80;;;25.50;59.50;;;;;;229571;1251;22274;-59
2023/09/11 00:37:32;;;;;;;6.30;5.70;;;25.50;59.60;;;;;;229486;1256;22280;-59
2023/09/11 00:42:34;;;;;;;6.50;5.90;;;25.60;59.60;;;;;;229548;1251;22481;-60
2023/09/11 00:47:39;;;;;;;6.70;6.10;;;25.60;59.60;;;;;;229591;1252;22342;-60
2023/09/11 00:52:43;;;;;;;6.80;6.20;;;25.60;59.80;;;;;;229554;1247;22456;-60
2023/09/11 00:57:45;;;;;;;6.50;5.90;;;25.60;59.70;;;;;;229598;1251;23047;-60
2023/09/11 01:02:48;;;;;;;6.20;5.60;;;25.60;59.80;;;;;;229558;1252;22327;-60
2023/09/11 01:07:51;;;;;;;6.70;6.10;;;25.60;59.60;;;;;;229549;1252;23186;-60
2023/09/11 01:12:54;;;;;;;6.90;6.30;;;25.60;60.10;;;;;;229566;1251;22522;-60
2023/09/11 01:18:22;;;;;;;7.00;6.40;;;25.60;60.10;;;;;;229468;1248;23116;-60
2023/09/11 01:24:07;;;;;;;6.40;5.80;;;25.60;60.00;;;;;;229488;1252;22281;-59
2023/09/11 01:29:24;;;;;;;6.40;5.80;;;25.60;60.40;;;;;;229212;1247;22282;-60
2023/09/11 01:34:27;;;;;;;6.60;6.10;;;25.50;60.10;;;;;;229531;1252;22279;-59
2023/09/11 01:39:30;;;;;;;7.90;6.10;;;25.60;59.70;;;;;;229568;1254;23159;-60
2023/09/11 01:44:46;;;;;;;6.30;5.90;;;25.60;60.00;;;;;;229529;1251;23152;-59
2023/09/11 01:49:50;;;;;;;5.70;5.20;;;25.60;60.40;;;;;;229608;1251;22356;-59
2023/09/11 01:54:56;;;;;;;6.00;5.60;;;25.50;60.00;;;;;;229522;1253;22576;-59
2023/09/11 01:59:58;;;;;;;6.20;5.70;;;25.50;60.00;;;;;;229506;1248;22327;-59
2023/09/11 02:05:01;;;;;;;7.50;6.30;;;25.50;59.90;;;;;;229559;1249;22252;-60
2023/09/11 02:10:05;;;;;;;6.50;5.90;;;25.50;59.50;;;;;;229383;1251;23004;-59
2023/09/11 02:15:08;;;;;;;6.70;6.20;;;25.50;59.70;;;;;;229564;1264;22307;-59
2023/09/11 02:20:11;;;;;;;5.90;5.40;;;25.50;59.90;;;;;;229512;1263;22283;-60
2023/09/11 02:25:13;;;;;;;5.90;5.40;;;25.50;60.10;;;;;;229420;1264;22287;-59
2023/09/11 02:30:16;;;;;;;6.70;6.20;;;25.50;60.80;;;;;;229393;1263;22557;-60
2023/09/11 02:35:19;;;;;;;5.90;5.40;;;25.50;59.90;;;;;;229368;1248;22263;-60
2023/09/11 02:40:22;;;;;;;7.30;5.80;;;25.50;60.00;;;;;;229483;1264;22294;-59
2023/09/11 02:45:25;;;;;;;5.90;5.30;;;25.50;60.10;;;;;;229501;1262;22701;-59
2023/09/11 02:50:27;;;;;;;7.10;5.30;;;25.50;59.90;;;;;;229548;1263;24120;-59
2023/09/11 02:55:30;;;;;;;5.40;5.00;;;25.50;59.90;;;;;;229618;1251;22293;-59
2023/09/11 03:00:36;;;;;;;5.60;5.20;;;25.50;59.70;;;;;;229625;1264;23501;-59
2023/09/11 03:05:39;;;;;;;5.30;4.90;;;25.50;60.20;;;;;;229546;1259;22355;-59
2023/09/11 03:10:42;;;;;;;5.70;5.20;;;25.50;59.80;;;;;;229645;1249;22270;-60
2023/09/11 03:15:44;;;;;;;6.30;5.80;;;25.50;59.70;;;;;;229665;1251;22280;-60
2023/09/11 03:20:54;;;;;;;5.30;4.90;;;25.50;59.70;;;;;;229582;1253;23223;-60
2023/09/11 03:25:57;;;;;;;5.60;5.20;;;25.50;59.50;;;;;;229601;1257;22277;-59
2023/09/11 03:31:02;;;;;;;5.70;5.20;;;25.50;59.60;;;;;;229576;1263;22611;-60
2023/09/11 03:36:06;;;;;;;5.80;5.40;;;25.40;59.40;;;;;;229634;1263;23348;-59
2023/09/11 03:41:09;;;;;;;6.00;5.50;;;25.50;59.60;;;;;;229594;1263;23204;-60
2023/09/11 03:46:12;;;;;;;5.70;5.20;;;25.40;59.60;;;;;;229562;1253;22794;-60
2023/09/11 03:51:16;;;;;;;5.40;5.00;;;25.50;59.60;;;;;;229534;1264;22309;-60
2023/09/11 03:56:19;;;;;;;5.90;5.30;;;25.50;59.50;;;;;;227638;1251;25364;-59
2023/09/11 04:01:22;;;;;;;5.50;5.00;;;25.40;59.50;;;;;;229545;1264;22262;-60
2023/09/11 04:06:25;;;;;;;6.30;5.80;;;25.40;59.60;;;;;;229539;1253;22312;-60
2023/09/11 04:11:28;;;;;;;5.90;5.50;;;25.40;59.50;;;;;;229543;1251;22263;-59
2023/09/11 04:16:31;;;;;;;5.80;5.20;;;25.40;60.20;;;;;;229577;1263;22467;-59
2023/09/11 04:21:34;;;;;;;6.00;5.10;;;25.40;59.40;;;;;;229594;1263;22264;-59
2023/09/11 04:26:36;;;;;;;5.40;5.00;;;25.40;59.40;;;;;;229590;1257;22321;-59
2023/09/11 04:31:39;;;;;;;5.00;4.60;;;25.40;59.50;;;;;;229551;1263;22279;-59
2023/09/11 04:36:42;;;;;;;5.60;5.10;;;25.30;59.40;;;;;;229538;1248;22283;-60
2023/09/11 04:41:45;;;;;;;6.20;5.60;;;25.30;59.40;;;;;;229562;1263;22266;-59
2023/09/11 04:46:48;;;;;;;6.70;5.20;;;25.40;60.00;;;;;;229541;1251;22270;-60
2023/09/11 04:51:52;;;;;;;5.80;5.30;;;25.40;59.30;;;;;;229534;1251;24163;-60
2023/09/11 04:56:54;;;;;;;5.90;4.80;;;25.30;59.30;;;;;;229344;1259;22261;-60
2023/09/11 05:01:57;;;;;;;6.00;5.50;;;25.30;59.20;;;;;;229548;1251;22414;-60
2023/09/11 05:07:00;;;;;;;5.20;4.80;;;25.40;59.10;;;;;;229524;1254;22242;-59
2023/09/11 05:12:03;;;;;;;6.40;5.70;;;25.40;59.30;;;;;;229555;1247;22334;-60
2023/09/11 05:17:06;;;;;;;6.40;5.50;;;25.30;59.30;;;;;;229497;1263;22282;-60
2023/09/11 05:22:09;;;;;;;5.40;4.90;;;25.40;59.30;;;;;;229580;1248;22305;-60
2023/09/11 05:27:11;;;;;;;6.50;5.10;;;25.30;59.20;;;;;;229543;1249;22326;-59
2023/09/11 05:32:14;;;;;;;5.70;5.10;;;25.30;59.20;;;;;;229584;1253;22352;-60
2023/09/11 05:37:17;;;;;;;5.20;4.80;;;25.30;59.20;;;;;;229599;1263;22492;-59
2023/09/11 05:42:19;;;;;;;7.10;6.20;;;25.20;59.30;;;;;;229565;1263;24097;-59
2023/09/11 05:47:22;;;;;;;7.10;6.30;;;24.90;58.80;;;;;;229614;1263;22275;-58
2023/09/11 05:52:24;;;;;;;7.50;6.80;;;24.60;59.50;;;;;;229620;1248;22300;-59
2023/09/11 05:57:27;;;;;;;8.20;7.40;;;24.50;60.20;;;;;;229616;1263;22249;-59
2023/09/11 06:02:30;;;;;;;8.60;7.80;;;24.40;60.60;;;;;;229598;1263;22287;-58
2023/09/11 06:07:32;;;;;;;11.70;8.50;;;24.30;60.80;;;;;;229575;1263;22426;-56
2023/09/11 06:12:35;;;;;;;12.90;8.50;;;24.40;60.70;;;;;;229386;1249;22300;-58
2023/09/11 06:17:38;;;;;;;13.10;8.90;;;24.40;60.70;;;;;;229515;1248;22363;-58
2023/09/11 06:22:48;;;;;;;16.60;9.50;;;24.40;60.90;;;;;;229587;1249;22761;-58
2023/09/11 06:27:51;;;;;;;16.90;9.10;;;24.40;60.80;;;;;;229478;1255;22265;-60
2023/09/11 06:32:54;;;;;;;12.50;9.30;;;24.50;61.00;;;;;;229433;1263;22274;-61
2023/09/11 06:37:56;;;;;;;10.50;9.20;;;24.60;61.10;;;;;;229533;1263;22347;-61
2023/09/11 06:42:59;;;;;;;12.30;9.60;;;24.50;61.70;;;;;;229557;1252;22263;-60
2023/09/11 06:48:02;;;;;;;13.00;10.10;;;24.50;61.90;;;;;;229473;1263;23076;-62
2023/09/11 06:53:10;;;;;;;11.70;9.40;;;24.70;61.80;;;;;;229579;1248;22314;-61
2023/09/11 06:58:12;;;;;;;13.00;9.50;;;24.90;61.60;;;;;;229522;1263;22250;-61
2023/09/11 07:03:16;;;;;;;15.60;9.70;;;25.10;61.40;;;;;;229491;1255;22417;-60
2023/09/11 07:08:19;;;;;;;17.00;10.20;;;25.20;61.30;;;;;;229504;1250;23120;-61
2023/09/11 07:13:22;;;;;;;11.30;9.30;;;25.30;61.30;;;;;;229534;1263;23001;-62
2023/09/11 07:18:25;;;;;;;14.40;10.10;;;25.20;61.60;;;;;;229355;1262;22271;-62
2023/09/11 07:23:29;;;;;;;11.70;10.40;;;25.30;62.00;;;;;;229368;1248;23376;-62
2023/09/11 07:28:33;;;;;;;14.30;11.20;;;25.60;61.00;;;;;;229427;1248;22264;-62
2023/09/11 07:33:36;;;;;;;12.10;10.20;;;25.30;61.50;;;;;;229523;1248;23070;-61
2023/09/11 07:38:44;;;;;;;11.50;10.00;;;25.40;61.20;;;;;;229530;1248;23515;-60
2023/09/11 07:43:51;;;;;;;10.30;9.30;;;25.50;60.80;;;;;;229535;1263;22311;-60
2023/09/11 07:48:54;;;;;;;11.30;10.00;;;25.60;60.90;;;;;;229524;1255;22407;-60
2023/09/11 07:54:01;;;;;;;12.50;9.90;;;25.50;61.00;;;;;;229543;1260;22360;-60
2023/09/11 07:59:04;;;;;;;10.40;9.20;;;25.60;60.90;;;;;;229522;1263;22694;-60
2023/09/11 08:04:07;;;;;;;10.30;8.90;;;25.70;60.80;;;;;;229549;1263;22883;-61
2023/09/11 08:09:10;;;;;;;10.30;9.30;;;25.60;60.80;;;;;;229495;1247;22312;-60
2023/09/11 08:14:13;;;;;;;9.60;8.70;;;25.60;60.90;;;;;;229516;1249;22288;-60
2023/09/11 08:19:16;;;;;;;10.10;8.70;;;25.60;61.10;;;;;;229548;1249;22262;-60
2023/09/11 08:24:18;;;;;;;10.20;9.20;;;25.60;61.10;;;;;;229561;1247;22291;-60
2023/09/11 08:29:21;;;;;;;10.10;9.00;;;25.70;61.10;;;;;;229504;1255;22257;-60
2023/09/11 08:34:24;;;;;;;10.00;8.70;;;25.70;61.10;;;;;;229566;1263;22277;-60
2023/09/11 08:39:26;;;;;;;9.60;8.30;;;25.80;60.90;;;;;;229576;1248;22274;-61
2023/09/11 08:44:29;;;;;;;10.00;8.90;;;25.80;60.90;;;;;;229498;1249;22225;-60
2023/09/11 08:49:44;;;;;;;10.30;8.70;;;25.80;60.90;;;;;;229549;1248;22290;-60
2023/09/11 08:54:52;;;;;;;9.30;8.40;;;25.90;60.80;;;;;;229567;1248;23068;-60
2023/09/11 09:00:03;;;;;;;10.10;8.60;;;26.00;61.30;;;;;;229587;1247;24003;-61
2023/09/11 09:05:07;;;;;;;10.10;8.60;;;26.00;60.70;;;;;;229490;1248;22241;-60
2023/09/11 09:10:11;;;;;;;9.00;8.10;;;26.10;60.70;;;;;;229548;1248;22286;-60
2023/09/11 09:15:14;;;;;;;13.00;9.00;;;26.20;60.50;;;;;;229604;1248;22561;-60
2023/09/11 09:20:17;;;;;;;9.80;8.20;;;26.20;60.40;;;;;;229571;1249;22332;-60
2023/09/11 09:25:21;;;;;;;9.50;8.60;;;26.20;60.30;;;;;;229557;1248;22584;-60
2023/09/11 09:30:31;;;;;;;10.00;8.30;;;26.30;60.40;;;;;;229323;1249;23047;-61
2023/09/11 09:35:34;;;;;;;10.80;8.30;;;26.50;60.10;;;;;;229531;1248;22353;-61
2023/09/11 09:40:38;;;;;;;9.40;8.50;;;26.50;60.10;;;;;;229556;1248;23117;-61
2023/09/11 09:45:42;;;;;;;8.60;7.80;;;26.60;59.80;;;;;;229581;1251;22273;-61
2023/09/11 09:51:01;;;;;;;9.30;8.50;;;26.50;59.90;;;;;;229512;1251;22300;-61
2023/09/11 09:56:09;;;;;;;8.40;7.80;;;26.50;59.70;;;;;;229581;1248;22333;-60
2023/09/11 10:01:17;;;;;;;10.70;7.50;;;26.70;59.60;;;;;;229590;1258;22274;-61
2023/09/11 10:06:22;;;;;;;8.20;7.30;;;26.80;59.40;;;;;;229549;1263;23005;-61
2023/09/11 10:11:29;;;;;;;8.20;7.40;;;26.70;59.80;;;;;;229530;1263;22269;-60
2023/09/11 10:16:32;;;;;;;9.10;7.40;;;26.80;59.20;;;;;;229496;1263;22289;-61
2023/09/11 10:21:35;;;;;;;8.50;6.90;;;26.80;59.40;;;;;;229536;1256;22276;-61
2023/09/11 10:26:44;;;;;;;8.30;7.60;;;26.80;59.60;;;;;;229554;1263;22239;-60
2023/09/11 10:32:17;;;;;;;7.40;6.80;;;26.90;59.50;;;;;;229553;1248;22339;-60
2023/09/11 10:37:21;;;;;;;7.70;6.80;;;27.00;59.50;;;;;;229565;1257;23273;-61
2023/09/11 10:42:23;;;;;;;7.40;6.70;;;27.00;59.10;;;;;;229474;1249;22309;-61
2023/09/11 10:47:27;;;;;;;9.10;6.80;;;27.10;59.30;;;;;;229512;1255;22290;-61
2023/09/11 10:52:30;;;;;;;6.70;6.00;;;27.10;58.70;;;;;;229530;1263;22272;-61
2023/09/11 10:57:32;;;;;;;7.30;6.60;;;27.20;58.30;;;;;;229462;1260;22279;-60
2023/09/11 11:02:35;;;;;;;8.40;7.70;;;27.30;58.20;;;;;;229504;1251;22718;-60
2023/09/11 11:07:37;;;;;;;7.60;6.90;;;27.30;56.50;;;;;;229551;1263;23277;-61
2023/09/11 11:12:44;;;;;;;7.20;6.60;;;27.10;56.70;;;;;;229535;1249;22265;-61
2023/09/11 11:18:03;;;;;;;7.60;6.90;;;27.20;57.30;;;;;;229574;1263;23173;-61
2023/09/11 11:23:11;;;;;;;7.70;7.00;;;27.30;56.70;;;;;;229523;1248;22272;-61
2023/09/11 11:28:18;;;;;;;6.80;6.20;;;27.30;56.50;;;;;;229408;1263;22290;-60
2023/09/11 11:33:24;;;;;;;7.30;6.40;;;27.40;56.60;;;;;;229509;1263;22347;-60
2023/09/11 11:38:29;;;;;;;7.10;6.50;;;27.50;56.10;;;;;;225901;1263;25413;-57
2023/09/11 11:43:32;;;;;;;7.50;6.90;;;27.40;56.10;;;;;;226141;1249;25556;-59
2023/09/11 11:48:37;;;;;;;7.30;6.60;;;27.30;56.20;;;;;;229454;1263;22723;-59
2023/09/11 11:53:40;;;;;;;7.20;6.40;;;27.30;56.30;;;;;;223914;1248;24077;-59
2023/09/11 11:58:43;;;;;;;7.80;6.90;;;27.40;56.20;;;;;;229463;1252;22303;-60
2023/09/11 12:03:47;;;;;;;8.90;7.60;;;27.50;56.20;;;;;;229493;1263;22422;-58
2023/09/11 12:08:50;;;;;;;7.80;7.20;;;27.40;56.30;;;;;;228126;1263;22673;-59
2023/09/11 12:13:54;;;;;;;7.90;7.00;;;27.50;55.70;;;;;;221167;1263;243685;-59
2023/09/11 12:18:57;;;;;;;7.20;6.60;;;27.50;55.90;;;;;;229513;1259;22280;-59
2023/09/11 12:24:00;;;;;;;7.90;6.90;;;27.40;56.00;;;;;;229277;1264;22514;-59
2023/09/11 12:29:03;;;;;;;8.40;6.90;;;27.40;55.60;;;;;;229477;1247;22299;-60
2023/09/11 12:34:06;;;;;;;7.70;7.10;;;27.50;55.40;;;;;;221391;1251;22557;-60
2023/09/11 12:39:09;;;;;;;7.30;6.40;;;27.60;55.20;;;;;;229507;1260;22283;-59
2023/09/11 12:44:12;;;;;;;8.90;6.80;;;27.60;55.00;;;;;;229851;1251;22179;-60
2023/09/11 12:49:15;;;;;;;12.20;7.00;;;27.80;54.80;;;;;;228442;1249;22780;-60
2023/09/11 12:54:18;;;;;;;7.30;6.70;;;27.70;54.70;;;;;;228470;1263;22837;-61
2023/09/11 12:59:21;;;;;;;7.20;6.60;;;27.70;54.70;;;;;;228483;1263;22619;-60
2023/09/11 13:04:25;;;;;;;8.50;7.00;;;27.70;54.80;;;;;;228351;1252;22499;-60
2023/09/11 13:09:27;;;;;;;8.00;7.20;;;27.80;54.00;;;;;;228693;1257;22271;-60
2023/09/11 13:14:32;;;;;;;7.60;7.00;;;27.80;53.30;;;;;;228361;1263;22555;-62
2023/09/11 13:19:36;;;;;;;8.20;6.70;;;27.80;53.50;;;;;;228317;1263;22707;-59
2023/09/11 13:24:43;;;;;;;7.60;6.90;;;27.80;53.30;;;;;;227906;1263;22597;-60
2023/09/11 13:29:47;;;;;;;8.30;7.50;;;27.90;53.20;;;;;;227943;1252;22487;-58
2023/09/11 13:34:50;;;;;;;6.80;6.30;;;27.80;52.70;;;;;;228066;1263;24303;-60
2023/09/11 13:39:53;;;;;;;7.60;7.00;;;27.80;53.00;;;;;;228493;1263;22546;-60
2023/09/11 13:44:55;;;;;;;7.20;6.50;;;27.80;52.60;;;;;;226179;1252;26525;-59
2023/09/11 13:49:59;;;;;;;7.50;6.80;;;27.80;52.80;;;;;;225442;1249;22567;-60
2023/09/11 13:55:04;;;;;;;8.30;6.90;;;27.70;53.20;;;;;;229514;1263;22276;-60
2023/09/11 14:00:07;;;;;;;10.20;7.20;;;27.60;53.20;;;;;;229340;1263;22292;-58
2023/09/11 14:05:13;;;;;;;12.30;6.90;;;27.80;52.80;;;;;;229491;1252;22389;-59
2023/09/11 14:10:16;;;;;;;7.80;7.10;;;27.80;53.30;;;;;;229515;1263;22269;-59
2023/09/11 14:15:18;;;;;;;7.90;7.20;;;27.70;53.70;;;;;;229544;1252;23172;-60
2023/09/11 14:20:21;;;;;;;7.30;6.70;;;27.70;53.90;;;;;;229501;1255;22253;-59
2023/09/11 14:25:25;;;;;;;7.80;7.20;;;27.80;54.20;;;;;;229601;1263;22359;-60
2023/09/11 14:30:28;;;;;;;7.70;7.10;;;27.70;54.20;;;;;;229559;1262;22359;-60
2023/09/11 14:35:30;;;;;;;7.20;6.20;;;27.70;54.50;;;;;;229525;1247;22346;-59
2023/09/11 14:40:33;;;;;;;7.60;6.90;;;27.70;54.50;;;;;;229568;1252;22385;-59
2023/09/11 14:45:36;;;;;;;7.70;7.00;;;27.80;55.20;;;;;;229627;1251;22364;-59
2023/09/11 14:50:38;;;;;;;11.80;6.90;;;27.80;54.60;;;;;;229539;1263;22265;-59
2023/09/11 14:55:41;;;;;;;10.10;6.40;;;27.80;54.80;;;;;;229538;1252;22268;-59
2023/09/11 15:00:44;;;;;;;7.80;7.20;;;27.80;54.90;;;;;;229579;1260;22413;-59
2023/09/11 15:05:46;;;;;;;8.90;6.90;;;27.80;58.60;;;;;;229617;1252;23001;-59
2023/09/11 15:10:59;;;;;;;7.50;7.00;;;27.80;62.10;;;;;;229547;1252;22256;-58
2023/09/11 15:16:02;;;;;;;9.50;7.10;;;27.90;65.30;;;;;;229535;1258;22447;-58
2023/09/11 15:21:04;;;;;;;8.20;7.40;;;28.00;64.70;;;;;;229539;1252;22356;-59
2023/09/11 15:26:07;;;;;;;15.90;9.20;;;28.00;64.80;;;;;;229570;1263;22297;-59
2023/09/11 15:31:10;;;;;;;12.70;8.40;;;28.00;64.20;;;;;;229554;1263;22276;-59
2023/09/11 15:36:14;;;;;;;11.40;8.00;;;28.00;62.30;;;;;;229565;1252;22241;-60
2023/09/11 15:41:16;;;;;;;8.10;7.30;;;28.00;61.40;;;;;;229534;1263;22496;-60
2023/09/11 15:46:19;;;;;;;10.10;7.60;;;27.90;60.70;;;;;;229626;1263;22263;-59
2023/09/11 15:51:40;;;;;;;9.20;7.40;;;27.90;60.00;;;;;;229524;1248;22427;-59
2023/09/11 15:56:43;;;;;;;16.60;7.40;;;27.90;59.70;;;;;;229529;1252;22429;-59
2023/09/11 16:01:46;;;;;;;9.90;7.40;;;27.90;59.30;;;;;;229339;1249;22278;-59
2023/09/11 16:06:50;;;;;;;9.70;7.60;;;27.90;59.10;;;;;;229478;1260;22628;-59
2023/09/11 16:11:53;;;;;;;7.90;7.10;;;27.80;58.90;;;;;;229486;1252;22224;-59
2023/09/11 16:16:57;;;;;;;14.80;6.90;;;27.80;58.90;;;;;;229502;1252;23187;-59
2023/09/11 16:22:03;;;;;;;8.50;7.00;;;27.80;58.50;;;;;;229502;1251;22285;-59
2023/09/11 16:27:07;;;;;;;7.10;6.60;;;27.90;58.50;;;;;;229417;1255;22802;-59
2023/09/11 16:32:10;;;;;;;8.20;6.90;;;27.80;58.70;;;;;;229444;1252;22339;-59
2023/09/11 16:37:14;;;;;;;6.70;6.10;;;27.80;58.60;;;;;;229509;1254;22705;-59
2023/09/11 16:42:17;;;;;;;8.00;6.60;;;27.80;58.90;;;;;;229516;1252;22316;-58
2023/09/11 16:47:20;;;;;;;10.50;7.40;;;27.80;58.90;;;;;;229426;1263;22263;-60
2023/09/11 16:52:23;;;;;;;10.30;7.10;;;27.80;59.10;;;;;;229471;1263;22352;-59
2023/09/11 16:57:28;;;;;;;11.70;8.60;;;27.80;59.20;;;;;;229508;1260;22256;-58
2023/09/11 17:02:35;;;;;;;11.80;7.40;;;27.80;60.20;;;;;;229464;1252;22256;-59
2023/09/11 17:07:38;;;;;;;11.30;7.90;;;27.80;60.10;;;;;;229470;1252;22308;-56
2023/09/11 17:12:41;;;;;;;13.80;8.10;;;27.90;60.20;;;;;;229587;1260;22839;-59
2023/09/11 17:17:45;;;;;;;8.90;8.00;;;27.80;60.20;;;;;;229572;1252;23346;-58
2023/09/11 17:22:48;;;;;;;9.10;8.20;;;27.80;59.20;;;;;;229553;1263;22323;-56
2023/09/11 17:27:52;;;;;;;9.00;8.00;;;27.60;57.70;;;;;;229573;1252;22273;-58
2023/09/11 17:32:55;;;;;;;13.50;10.00;;;27.30;58.10;;;;;;229609;1264;22291;-57
2023/09/11 17:37:58;;;;;;;12.30;10.70;;;27.10;57.60;;;;;;229567;1250;23274;-56
2023/09/11 17:43:01;;;;;;;14.10;9.60;;;27.10;57.00;;;;;;229581;1256;22353;-58
2023/09/11 17:48:05;;;;;;;15.90;8.60;;;27.00;56.90;;;;;;229567;1252;22276;-57
2023/09/11 17:53:08;;;;;;;12.10;8.60;;;26.90;57.30;;;;;;229615;1263;23986;-56
2023/09/11 17:58:12;;;;;;;12.80;9.10;;;26.90;57.50;;;;;;229578;1262;22963;-55
2023/09/11 18:03:15;;;;;;;12.80;8.50;;;26.80;58.20;;;;;;229525;1251;22299;-59
2023/09/11 18:08:19;;;;;;;9.90;8.70;;;26.70;58.10;;;;;;229427;1252;22345;-60
2023/09/11 18:13:22;;;;;;;10.90;8.70;;;26.60;58.60;;;;;;229439;1261;22314;-57
2023/09/11 18:18:25;;;;;;;15.90;8.90;;;26.50;59.80;;;;;;229521;1254;22283;-59
2023/09/11 18:23:28;;;;;;;9.80;9.00;;;26.50;59.70;;;;;;229530;1264;22279;-56
2023/09/11 18:28:36;;;;;;;14.60;9.50;;;26.40;60.30;;;;;;229467;1263;22286;-57
2023/09/11 18:33:43;;;;;;;10.50;9.20;;;26.40;60.70;;;;;;229501;1263;22328;-59
2023/09/11 18:38:49;;;;;;;19.70;10.90;;;26.20;61.30;;;;;;229558;1257;22334;-58
2023/09/11 18:43:57;;;;;;;14.50;10.10;;;26.10;60.90;;;;;;229553;1263;22231;-60
2023/09/11 18:49:01;;;;;;;18.40;10.70;;;26.20;60.70;;;;;;229513;1253;22320;-59
2023/09/11 18:54:08;;;;;;;15.40;10.80;;;26.10;61.50;;;;;;229494;1253;23042;-57
2023/09/11 18:59:14;;;;;;;15.80;10.60;;;25.90;61.10;;;;;;229567;1253;22256;-58
2023/09/11 19:04:18;;;;;;;14.40;10.60;;;25.80;60.80;;;;;;229571;1251;22332;-59
2023/09/11 19:09:23;;;;;;;16.10;11.10;;;25.70;60.80;;;;;;229580;1252;22314;-58
2023/09/11 19:14:27;;;;;;;14.90;12.00;;;25.70;61.00;;;;;;229553;1251;23462;-59
2023/09/11 19:19:31;;;;;;;12.80;10.80;;;25.70;60.60;;;;;;229602;1251;23067;-59
2023/09/11 19:24:35;;;;;;;13.40;11.60;;;25.80;60.10;;;;;;229397;1253;24092;-59
2023/09/11 19:29:41;;;;;;;12.50;11.30;;;25.80;60.10;;;;;;229185;1255;22346;-56
2023/09/11 19:34:44;;;;;;;12.40;10.90;;;25.60;60.10;;;;;;229327;1247;22339;-59
2023/09/11 19:39:48;;;;;;;11.60;10.50;;;25.50;60.10;;;;;;229509;1248;22246;-59
2023/09/11 19:44:54;;;;;;;12.80;11.10;;;25.40;60.40;;;;;;229322;1251;22422;-58
2023/09/11 19:49:58;;;;;;;13.20;11.10;;;25.30;60.70;;;;;;229613;1247;22331;-58
2023/09/11 19:55:02;;;;;;;17.80;10.50;;;25.30;61.40;;;;;;229588;1260;22299;-58
2023/09/11 20:00:10;;;;;;;14.60;11.80;;;25.30;61.30;;;;;;229546;1263;22413;-58
2023/09/11 20:05:14;;;;;;;16.70;12.50;;;25.20;61.40;;;;;;229616;1247;22317;-56
2023/09/11 20:10:18;;;;;;;15.60;11.60;;;25.10;62.00;;;;;;229514;1251;22298;-60
2023/09/11 20:15:21;;;;;;;15.30;10.40;;;25.20;61.90;;;;;;229628;1251;22305;-57
2023/09/11 20:20:24;;;;;;;18.70;10.80;;;24.90;62.40;;;;;;229581;1251;22723;-58
2023/09/11 20:25:28;;;;;;;11.60;9.80;;;24.80;62.60;;;;;;229578;1251;22305;-59
2023/09/11 20:30:36;;;;;;;10.10;9.20;;;24.90;62.90;;;;;;229593;1251;22252;-58
2023/09/11 20:35:40;;;;;;;17.00;10.30;;;24.80;62.90;;;;;;229515;1251;22267;-59
2023/09/11 20:40:43;;;;;;;14.00;10.30;;;24.90;62.30;;;;;;229514;1251;22267;-58
2023/09/11 20:45:46;;;;;;;11.80;10.70;;;24.90;62.40;;;;;;229499;1248;22302;-59
2023/09/11 20:50:49;;;;;;;16.90;11.60;;;24.80;62.30;;;;;;229401;1248;23043;-58
2023/09/11 20:55:53;;;;;;;12.40;10.80;;;24.80;62.10;;;;;;229457;1248;23606;-58
2023/09/11 21:00:56;;;;;;;12.70;11.40;;;24.90;61.90;;;;;;229416;1248;22283;-60
2023/09/11 21:06:00;;;;;;;18.20;11.90;;;24.80;61.90;;;;;;229487;1247;22299;-59
2023/09/11 21:11:03;;;;;;;16.00;11.20;;;24.80;61.60;;;;;;229442;1247;22310;-60
2023/09/11 21:16:06;;;;;;;14.30;10.70;;;24.80;61.50;;;;;;229568;1247;22287;-60
2023/09/11 21:21:09;;;;;;;11.90;10.80;;;24.80;61.60;;;;;;229505;1247;22267;-60
2023/09/11 21:26:11;;;;;;;16.30;10.40;;;24.70;61.70;;;;;;229495;1247;22285;-61
2023/09/11 21:31:14;;;;;;;12.30;10.00;;;24.70;62.40;;;;;;229429;1248;22693;-60
2023/09/11 21:36:17;;;;;;;15.50;11.30;;;24.50;61.70;;;;;;229548;1247;22273;-61
2023/09/11 21:41:20;;;;;;;12.30;10.70;;;24.60;61.80;;;;;;229556;1249;22278;-61
2023/09/11 21:46:22;;;;;;;11.80;10.50;;;24.50;62.00;;;;;;229530;1247;22335;-61
2023/09/11 21:51:25;;;;;;;16.40;12.10;;;24.40;62.50;;;;;;229562;1249;22280;-60
2023/09/11 21:56:28;;;;;;;18.20;11.90;;;24.40;62.30;;;;;;229517;1248;23402;-58
2023/09/11 22:01:31;;;;;;;13.90;10.40;;;24.50;62.20;;;;;;229483;1247;22319;-59
2023/09/11 22:06:34;;;;;;;16.30;11.80;;;24.90;61.30;;;;;;229505;1248;22290;-59
2023/09/11 22:11:37;;;;;;;13.50;11.40;;;25.10;60.50;;;;;;229480;1250;22758;-59
2023/09/11 22:16:39;;;;;;;11.70;10.60;;;25.30;60.30;;;;;;229574;1251;22289;-58
2023/09/11 22:21:42;;;;;;;15.70;10.70;;;25.40;60.30;;;;;;229512;1254;22282;-59
2023/09/11 22:26:45;;;;;;;12.60;10.20;;;25.50;60.30;;;;;;229508;1254;22279;-59
2023/09/11 22:31:48;;;;;;;11.40;10.20;;;25.60;61.10;;;;;;229517;1248;22311;-58
2023/09/11 22:36:51;;;;;;;13.20;10.40;;;25.70;60.40;;;;;;229529;1253;22693;-58
2023/09/11 22:41:53;;;;;;;11.60;10.40;;;25.70;60.00;;;;;;229556;1248;22947;-59
2023/09/11 22:46:56;;;;;;;12.10;10.10;;;25.90;59.40;;;;;;229555;1248;22301;-59
2023/09/11 22:51:59;;;;;;;11.50;10.30;;;25.90;59.90;;;;;;229490;1247;22316;-58
2023/09/11 22:57:03;;;;;;;10.60;9.60;;;25.90;59.90;;;;;;229426;1249;22246;-59
2023/09/11 23:02:07;;;;;;;11.20;10.10;;;26.00;59.80;;;;;;229483;1254;22295;-58
2023/09/11 23:07:19;;;;;;;10.70;9.80;;;26.00;60.00;;;;;;229534;1254;22759;-59
2023/09/11 23:12:21;;;;;;;10.00;8.90;;;25.90;60.10;;;;;;229509;1249;22268;-59
2023/09/11 23:17:24;;;;;;;10.20;9.30;;;25.90;59.80;;;;;;229535;1254;22256;-59
2023/09/11 23:22:26;;;;;;;10.40;9.40;;;25.90;59.90;;;;;;229562;1254;22328;-59
2023/09/11 23:27:29;;;;;;;10.90;9.80;;;25.70;60.30;;;;;;229518;1251;22278;-59
2023/09/11 23:32:33;;;;;;;10.20;9.10;;;25.70;60.30;;;;;;229508;1250;22357;-59
2023/09/11 23:37:35;;;;;;;9.90;8.90;;;25.70;60.10;;;;;;229510;1254;22264;-58
2023/09/11 23:42:39;;;;;;;10.10;9.10;;;25.70;60.10;;;;;;229509;1252;23008;-59
2023/09/11 23:47:41;;;;;;;18.20;8.80;;;25.70;60.10;;;;;;229558;1254;22308;-58
2023/09/11 23:52:45;;;;;;;9.70;8.90;;;25.70;60.30;;;;;;229586;1254;22460;-60
2023/09/11 23:57:47;;;;;;;10.80;9.40;;;25.60;60.30;;;;;;229477;1251;22354;-59
